sensor_id;sensor_type;location;lat;lon;timestamp;P1;durP1;ratioP1;P2;durP2;ratioP2
15198;SDS011;7700;48.654;9.070;2023-02-22T00:01:52;11.00;;;7.30;;
15198;SDS011;7700;48.654;9.070;2023-02-22T00:04:35;11.27;;;7.17;;
15198;SDS011;7700;48.654;9.070;2023-02-22T00:07:03;8.47;;;6.50;;
15198;SDS011;7700;48.654;9.070;2023-02-22T00:09:29;7.97;;;7.10;;
15198;SDS011;7700;48.654;9.070;2023-02-22T00:11:55;10.17;;;6.33;;
15198;SDS011;7700;48.654;9.070;2023-02-22T00:14:22;6.67;;;6.00;;
15198;SDS011;7700;48.654;9.070;2023-02-22T00:16:51;10.40;;;7.17;;
15198;SDS011;7700;48.654;9.070;2023-02-22T00:19:18;8.07;;;6.03;;
15198;SDS011;7700;48.654;9.070;2023-02-22T00:21:44;8.33;;;6.63;;
15198;SDS011;7700;48.654;9.070;2023-02-22T00:24:11;7.70;;;6.00;;
15198;SDS011;7700;48.654;9.070;2023-02-22T00:26:50;10.17;;;6.53;;
15198;SDS011;7700;48.654;9.070;2023-02-22T00:29:16;9.03;;;6.97;;
15198;SDS011;7700;48.654;9.070;2023-02-22T00:31:42;10.00;;;6.43;;
15198;SDS011;7700;48.654;9.070;2023-02-22T00:34:08;11.57;;;7.47;;
15198;SDS011;7700;48.654;9.070;2023-02-22T00:36:34;10.10;;;6.77;;
15198;SDS011;7700;48.654;9.070;2023-02-22T00:39:00;9.03;;;6.43;;
15198;SDS011;7700;48.654;9.070;2023-02-22T00:41:26;6.70;;;6.00;;
15198;SDS011;7700;48.654;9.070;2023-02-22T00:43:52;10.73;;;6.20;;
15198;SDS011;7700;48.654;9.070;2023-02-22T00:46:18;9.30;;;5.90;;
15198;SDS011;7700;48.654;9.070;2023-02-22T00:48:44;11.10;;;6.50;;
15198;SDS011;7700;48.654;9.070;2023-02-22T00:51:10;7.53;;;5.83;;
15198;SDS011;7700;48.654;9.070;2023-02-22T00:53:37;9.63;;;6.20;;
15198;SDS011;7700;48.654;9.070;2023-02-22T00:56:03;7.43;;;5.63;;
15198;SDS011;7700;48.654;9.070;2023-02-22T00:58:29;8.60;;;7.00;;
15198;SDS011;7700;48.654;9.070;2023-02-22T01:00:55;9.30;;;6.40;;
15198;SDS011;7700;48.654;9.070;2023-02-22T01:03:21;8.53;;;6.73;;
15198;SDS011;7700;48.654;9.070;2023-02-22T01:05:47;8.03;;;6.67;;
15198;SDS011;7700;48.654;9.070;2023-02-22T01:08:14;7.60;;;6.13;;
15198;SDS011;7700;48.654;9.070;2023-02-22T01:10:40;7.30;;;5.80;;
15198;SDS011;7700;48.654;9.070;2023-02-22T01:13:07;10.87;;;6.27;;
15198;SDS011;7700;48.654;9.070;2023-02-22T01:15:37;8.73;;;5.80;;
15198;SDS011;7700;48.654;9.070;2023-02-22T01:18:03;8.77;;;6.20;;
15198;SDS011;7700;48.654;9.070;2023-02-22T01:20:30;10.00;;;6.13;;
15198;SDS011;7700;48.654;9.070;2023-02-22T01:22:57;7.30;;;5.63;;
15198;SDS011;7700;48.654;9.070;2023-02-22T01:25:25;8.97;;;6.20;;
15198;SDS011;7700;48.654;9.070;2023-02-22T01:27:51;7.33;;;5.80;;
15198;SDS011;7700;48.654;9.070;2023-02-22T01:30:21;7.70;;;5.97;;
15198;SDS011;7700;48.654;9.070;2023-02-22T01:32:47;7.27;;;5.93;;
15198;SDS011;7700;48.654;9.070;2023-02-22T01:35:15;8.33;;;6.00;;
15198;SDS011;7700;48.654;9.070;2023-02-22T01:37:42;9.07;;;6.20;;
15198;SDS011;7700;48.654;9.070;2023-02-22T01:40:09;9.33;;;6.37;;
15198;SDS011;7700;48.654;9.070;2023-02-22T01:42:36;7.60;;;6.03;;
15198;SDS011;7700;48.654;9.070;2023-02-22T01:47:46;9.83;;;6.57;;
15198;SDS011;7700;48.654;9.070;2023-02-22T01:50:12;7.43;;;6.40;;
15198;SDS011;7700;48.654;9.070;2023-02-22T01:52:38;8.43;;;6.93;;
15198;SDS011;7700;48.654;9.070;2023-02-22T01:55:04;9.27;;;6.80;;
15198;SDS011;7700;48.654;9.070;2023-02-22T01:57:32;11.07;;;6.80;;
15198;SDS011;7700;48.654;9.070;2023-02-22T02:00:01;7.77;;;6.73;;
15198;SDS011;7700;48.654;9.070;2023-02-22T02:02:34;7.97;;;6.03;;
15198;SDS011;7700;48.654;9.070;2023-02-22T02:05:00;6.93;;;6.10;;
15198;SDS011;7700;48.654;9.070;2023-02-22T02:07:26;8.77;;;6.40;;
15198;SDS011;7700;48.654;9.070;2023-02-22T02:12:19;10.30;;;6.63;;
15198;SDS011;7700;48.654;9.070;2023-02-22T02:14:47;9.60;;;6.00;;
15198;SDS011;7700;48.654;9.070;2023-02-22T02:17:14;8.10;;;6.03;;
15198;SDS011;7700;48.654;9.070;2023-02-22T02:19:47;10.50;;;6.33;;
15198;SDS011;7700;48.654;9.070;2023-02-22T02:27:40;6.70;;;6.10;;
15198;SDS011;7700;48.654;9.070;2023-02-22T02:33:06;7.03;;;5.60;;
15198;SDS011;7700;48.654;9.070;2023-02-22T02:35:38;7.90;;;6.00;;
15198;SDS011;7700;48.654;9.070;2023-02-22T02:38:15;8.20;;;6.10;;
15198;SDS011;7700;48.654;9.070;2023-02-22T02:40:51;8.13;;;5.73;;
15198;SDS011;7700;48.654;9.070;2023-02-22T02:43:28;6.93;;;5.03;;
15198;SDS011;7700;48.654;9.070;2023-02-22T02:48:24;7.33;;;5.50;;
15198;SDS011;7700;48.654;9.070;2023-02-22T02:50:51;7.77;;;5.80;;
15198;SDS011;7700;48.654;9.070;2023-02-22T02:53:20;8.63;;;5.77;;
15198;SDS011;7700;48.654;9.070;2023-02-22T02:55:46;6.77;;;5.27;;
15198;SDS011;7700;48.654;9.070;2023-02-22T02:58:17;7.97;;;5.63;;
15198;SDS011;7700;48.654;9.070;2023-02-22T03:00:43;8.90;;;5.83;;
15198;SDS011;7700;48.654;9.070;2023-02-22T03:03:17;6.83;;;5.37;;
15198;SDS011;7700;48.654;9.070;2023-02-22T03:13:29;5.73;;;4.77;;
15198;SDS011;7700;48.654;9.070;2023-02-22T03:18:49;7.67;;;5.90;;
15198;SDS011;7700;48.654;9.070;2023-02-22T03:21:27;7.00;;;5.90;;
15198;SDS011;7700;48.654;9.070;2023-02-22T03:24:11;7.60;;;5.50;;
15198;SDS011;7700;48.654;9.070;2023-02-22T03:26:41;7.43;;;5.00;;
15198;SDS011;7700;48.654;9.070;2023-02-22T03:29:09;6.53;;;5.53;;
15198;SDS011;7700;48.654;9.070;2023-02-22T03:31:40;10.00;;;5.80;;
15198;SDS011;7700;48.654;9.070;2023-02-22T03:34:09;7.47;;;5.90;;
15198;SDS011;7700;48.654;9.070;2023-02-22T03:36:38;10.90;;;5.50;;
15198;SDS011;7700;48.654;9.070;2023-02-22T03:39:07;7.50;;;5.53;;
15198;SDS011;7700;48.654;9.070;2023-02-22T03:41:34;5.77;;;5.27;;
15198;SDS011;7700;48.654;9.070;2023-02-22T03:44:05;7.33;;;6.00;;
15198;SDS011;7700;48.654;9.070;2023-02-22T03:46:33;7.70;;;5.90;;
15198;SDS011;7700;48.654;9.070;2023-02-22T03:49:02;6.97;;;5.47;;
15198;SDS011;7700;48.654;9.070;2023-02-22T03:51:29;6.60;;;5.60;;
15198;SDS011;7700;48.654;9.070;2023-02-22T03:53:55;7.10;;;5.90;;
15198;SDS011;7700;48.654;9.070;2023-02-22T03:56:22;7.83;;;5.70;;
15198;SDS011;7700;48.654;9.070;2023-02-22T03:58:50;6.50;;;5.57;;
15198;SDS011;7700;48.654;9.070;2023-02-22T04:01:16;6.73;;;5.27;;
15198;SDS011;7700;48.654;9.070;2023-02-22T04:03:43;6.93;;;4.90;;
15198;SDS011;7700;48.654;9.070;2023-02-22T04:06:10;7.63;;;5.60;;
15198;SDS011;7700;48.654;9.070;2023-02-22T04:08:36;6.17;;;5.23;;
15198;SDS011;7700;48.654;9.070;2023-02-22T04:11:03;6.53;;;5.57;;
15198;SDS011;7700;48.654;9.070;2023-02-22T04:13:29;8.30;;;5.93;;
15198;SDS011;7700;48.654;9.070;2023-02-22T04:15:55;8.80;;;5.20;;
15198;SDS011;7700;48.654;9.070;2023-02-22T04:18:21;8.13;;;5.57;;
15198;SDS011;7700;48.654;9.070;2023-02-22T04:20:47;6.73;;;4.87;;
15198;SDS011;7700;48.654;9.070;2023-02-22T04:23:13;6.63;;;5.93;;
15198;SDS011;7700;48.654;9.070;2023-02-22T04:25:40;6.70;;;5.57;;
15198;SDS011;7700;48.654;9.070;2023-02-22T04:28:06;6.47;;;5.03;;
15198;SDS011;7700;48.654;9.070;2023-02-22T04:30:32;7.87;;;5.10;;
15198;SDS011;7700;48.654;9.070;2023-02-22T04:32:58;6.33;;;5.03;;
15198;SDS011;7700;48.654;9.070;2023-02-22T04:35:24;9.23;;;7.00;;
15198;SDS011;7700;48.654;9.070;2023-02-22T04:37:50;9.93;;;7.57;;
15198;SDS011;7700;48.654;9.070;2023-02-22T04:40:16;8.30;;;7.30;;
15198;SDS011;7700;48.654;9.070;2023-02-22T04:42:42;9.30;;;7.27;;
15198;SDS011;7700;48.654;9.070;2023-02-22T04:45:09;7.53;;;6.50;;
15198;SDS011;7700;48.654;9.070;2023-02-22T04:47:35;7.67;;;6.30;;
15198;SDS011;7700;48.654;9.070;2023-02-22T04:50:02;10.40;;;6.87;;
15198;SDS011;7700;48.654;9.070;2023-02-22T04:52:28;9.00;;;6.27;;
15198;SDS011;7700;48.654;9.070;2023-02-22T04:54:54;9.20;;;6.27;;
15198;SDS011;7700;48.654;9.070;2023-02-22T04:57:20;11.53;;;10.23;;
15198;SDS011;7700;48.654;9.070;2023-02-22T04:59:46;15.60;;;14.07;;
15198;SDS011;7700;48.654;9.070;2023-02-22T05:02:12;15.93;;;13.93;;
15198;SDS011;7700;48.654;9.070;2023-02-22T05:04:38;13.93;;;12.43;;
15198;SDS011;7700;48.654;9.070;2023-02-22T05:07:04;8.83;;;7.57;;
15198;SDS011;7700;48.654;9.070;2023-02-22T05:09:30;8.57;;;7.67;;
15198;SDS011;7700;48.654;9.070;2023-02-22T05:11:56;10.30;;;8.63;;
15198;SDS011;7700;48.654;9.070;2023-02-22T05:14:22;10.37;;;8.67;;
15198;SDS011;7700;48.654;9.070;2023-02-22T05:16:55;10.37;;;6.80;;
15198;SDS011;7700;48.654;9.070;2023-02-22T05:19:21;9.00;;;6.33;;
15198;SDS011;7700;48.654;9.070;2023-02-22T05:21:47;8.00;;;6.20;;
15198;SDS011;7700;48.654;9.070;2023-02-22T05:24:13;10.23;;;6.70;;
15198;SDS011;7700;48.654;9.070;2023-02-22T05:26:39;6.63;;;5.97;;
15198;SDS011;7700;48.654;9.070;2023-02-22T05:29:05;9.10;;;6.00;;
15198;SDS011;7700;48.654;9.070;2023-02-22T05:31:31;7.90;;;6.17;;
15198;SDS011;7700;48.654;9.070;2023-02-22T05:33:57;7.30;;;6.40;;
15198;SDS011;7700;48.654;9.070;2023-02-22T05:36:23;7.03;;;5.77;;
15198;SDS011;7700;48.654;9.070;2023-02-22T05:38:49;8.03;;;6.00;;
15198;SDS011;7700;48.654;9.070;2023-02-22T05:41:15;8.73;;;6.37;;
15198;SDS011;7700;48.654;9.070;2023-02-22T05:43:41;9.57;;;8.00;;
15198;SDS011;7700;48.654;9.070;2023-02-22T05:46:07;8.60;;;7.17;;
15198;SDS011;7700;48.654;9.070;2023-02-22T05:48:33;9.37;;;6.03;;
15198;SDS011;7700;48.654;9.070;2023-02-22T05:50:59;6.40;;;5.70;;
15198;SDS011;7700;48.654;9.070;2023-02-22T05:53:25;8.13;;;6.20;;
15198;SDS011;7700;48.654;9.070;2023-02-22T05:55:51;7.03;;;6.33;;
15198;SDS011;7700;48.654;9.070;2023-02-22T05:58:17;7.23;;;5.63;;
15198;SDS011;7700;48.654;9.070;2023-02-22T06:00:43;8.43;;;6.77;;
15198;SDS011;7700;48.654;9.070;2023-02-22T06:03:09;7.97;;;6.47;;
15198;SDS011;7700;48.654;9.070;2023-02-22T06:05:36;8.33;;;7.20;;
15198;SDS011;7700;48.654;9.070;2023-02-22T06:08:03;8.80;;;7.13;;
15198;SDS011;7700;48.654;9.070;2023-02-22T06:10:29;9.80;;;7.63;;
15198;SDS011;7700;48.654;9.070;2023-02-22T06:12:55;9.90;;;8.87;;
15198;SDS011;7700;48.654;9.070;2023-02-22T06:15:22;8.53;;;7.17;;
15198;SDS011;7700;48.654;9.070;2023-02-22T06:17:48;9.07;;;6.70;;
15198;SDS011;7700;48.654;9.070;2023-02-22T06:20:16;8.13;;;6.87;;
15198;SDS011;7700;48.654;9.070;2023-02-22T06:22:43;8.80;;;7.13;;
15198;SDS011;7700;48.654;9.070;2023-02-22T06:25:12;8.77;;;7.00;;
15198;SDS011;7700;48.654;9.070;2023-02-22T06:27:38;7.70;;;6.90;;
15198;SDS011;7700;48.654;9.070;2023-02-22T06:30:04;13.63;;;7.97;;
15198;SDS011;7700;48.654;9.070;2023-02-22T06:32:30;9.23;;;7.97;;
15198;SDS011;7700;48.654;9.070;2023-02-22T06:34:56;11.20;;;7.43;;
15198;SDS011;7700;48.654;9.070;2023-02-22T06:37:22;9.30;;;8.40;;
15198;SDS011;7700;48.654;9.070;2023-02-22T06:39:48;12.93;;;8.27;;
15198;SDS011;7700;48.654;9.070;2023-02-22T06:42:14;12.00;;;8.23;;
15198;SDS011;7700;48.654;9.070;2023-02-22T06:44:40;8.73;;;7.77;;
15198;SDS011;7700;48.654;9.070;2023-02-22T06:47:06;8.77;;;7.23;;
15198;SDS011;7700;48.654;9.070;2023-02-22T06:49:32;8.20;;;7.30;;
15198;SDS011;7700;48.654;9.070;2023-02-22T06:51:58;10.53;;;7.40;;
15198;SDS011;7700;48.654;9.070;2023-02-22T06:54:24;11.23;;;7.83;;
15198;SDS011;7700;48.654;9.070;2023-02-22T06:56:51;13.73;;;9.87;;
15198;SDS011;7700;48.654;9.070;2023-02-22T06:59:17;15.13;;;10.80;;
15198;SDS011;7700;48.654;9.070;2023-02-22T07:01:43;12.20;;;10.07;;
15198;SDS011;7700;48.654;9.070;2023-02-22T07:04:09;13.60;;;11.10;;
15198;SDS011;7700;48.654;9.070;2023-02-22T07:06:35;13.13;;;10.87;;
15198;SDS011;7700;48.654;9.070;2023-02-22T07:09:02;12.17;;;8.97;;
15198;SDS011;7700;48.654;9.070;2023-02-22T07:11:28;10.37;;;7.43;;
15198;SDS011;7700;48.654;9.070;2023-02-22T07:13:53;9.47;;;8.47;;
15198;SDS011;7700;48.654;9.070;2023-02-22T07:16:19;11.83;;;9.30;;
15198;SDS011;7700;48.654;9.070;2023-02-22T07:18:46;13.50;;;8.93;;
15198;SDS011;7700;48.654;9.070;2023-02-22T07:21:12;12.27;;;9.57;;
15198;SDS011;7700;48.654;9.070;2023-02-22T07:23:38;10.87;;;8.50;;
15198;SDS011;7700;48.654;9.070;2023-02-22T07:26:04;13.90;;;10.13;;
15198;SDS011;7700;48.654;9.070;2023-02-22T07:28:30;12.93;;;8.80;;
15198;SDS011;7700;48.654;9.070;2023-02-22T07:30:56;13.63;;;12.23;;
15198;SDS011;7700;48.654;9.070;2023-02-22T07:33:22;13.27;;;10.47;;
15198;SDS011;7700;48.654;9.070;2023-02-22T07:35:49;11.30;;;9.30;;
15198;SDS011;7700;48.654;9.070;2023-02-22T07:38:16;11.20;;;8.10;;
15198;SDS011;7700;48.654;9.070;2023-02-22T07:40:43;11.40;;;8.70;;
15198;SDS011;7700;48.654;9.070;2023-02-22T07:43:19;11.77;;;8.67;;
15198;SDS011;7700;48.654;9.070;2023-02-22T07:45:46;8.83;;;6.77;;
15198;SDS011;7700;48.654;9.070;2023-02-22T07:48:13;9.23;;;8.27;;
15198;SDS011;7700;48.654;9.070;2023-02-22T07:50:39;8.80;;;7.10;;
15198;SDS011;7700;48.654;9.070;2023-02-22T07:53:07;9.90;;;7.03;;
15198;SDS011;7700;48.654;9.070;2023-02-22T07:55:35;6.17;;;5.57;;
15198;SDS011;7700;48.654;9.070;2023-02-22T07:58:02;9.07;;;7.23;;
15198;SDS011;7700;48.654;9.070;2023-02-22T08:00:30;10.80;;;7.27;;
15198;SDS011;7700;48.654;9.070;2023-02-22T08:02:56;13.23;;;7.87;;
15198;SDS011;7700;48.654;9.070;2023-02-22T08:05:24;9.13;;;7.23;;
15198;SDS011;7700;48.654;9.070;2023-02-22T08:07:50;8.23;;;7.43;;
15198;SDS011;7700;48.654;9.070;2023-02-22T08:10:17;10.63;;;7.90;;
15198;SDS011;7700;48.654;9.070;2023-02-22T08:12:43;9.80;;;7.13;;
15198;SDS011;7700;48.654;9.070;2023-02-22T08:15:14;8.30;;;6.60;;
15198;SDS011;7700;48.654;9.070;2023-02-22T08:17:41;9.47;;;6.73;;
15198;SDS011;7700;48.654;9.070;2023-02-22T08:20:07;7.20;;;6.50;;
15198;SDS011;7700;48.654;9.070;2023-02-22T08:22:33;6.47;;;5.88;;
15198;SDS011;7700;48.654;9.070;2023-02-22T08:24:59;7.95;;;6.18;;
15198;SDS011;7700;48.654;9.070;2023-02-22T08:27:26;7.88;;;6.20;;
15198;SDS011;7700;48.654;9.070;2023-02-22T08:29:52;8.85;;;5.68;;
15198;SDS011;7700;48.654;9.070;2023-02-22T08:32:19;9.60;;;6.43;;
15198;SDS011;7700;48.654;9.070;2023-02-22T08:34:45;9.90;;;7.07;;
15198;SDS011;7700;48.654;9.070;2023-02-22T08:37:11;10.85;;;9.75;;
15198;SDS011;7700;48.654;9.070;2023-02-22T08:39:37;10.27;;;8.95;;
15198;SDS011;7700;48.654;9.070;2023-02-22T08:42:03;6.82;;;5.88;;
15198;SDS011;7700;48.654;9.070;2023-02-22T08:44:30;8.50;;;7.63;;
15198;SDS011;7700;48.654;9.070;2023-02-22T08:46:56;7.22;;;6.25;;
15198;SDS011;7700;48.654;9.070;2023-02-22T08:49:22;6.45;;;5.75;;
15198;SDS011;7700;48.654;9.070;2023-02-22T08:51:48;7.25;;;5.18;;
15198;SDS011;7700;48.654;9.070;2023-02-22T08:54:14;5.10;;;4.60;;
15198;SDS011;7700;48.654;9.070;2023-02-22T08:56:41;6.05;;;4.47;;
15198;SDS011;7700;48.654;9.070;2023-02-22T08:59:07;7.05;;;5.07;;
15198;SDS011;7700;48.654;9.070;2023-02-22T09:01:34;11.63;;;5.30;;
15198;SDS011;7700;48.654;9.070;2023-02-22T09:04:00;6.82;;;5.50;;
15198;SDS011;7700;48.654;9.070;2023-02-22T09:06:26;6.05;;;5.15;;
15198;SDS011;7700;48.654;9.070;2023-02-22T09:08:52;7.43;;;5.53;;
15198;SDS011;7700;48.654;9.070;2023-02-22T09:11:18;6.32;;;5.03;;
15198;SDS011;7700;48.654;9.070;2023-02-22T09:13:44;9.02;;;5.88;;
15198;SDS011;7700;48.654;9.070;2023-02-22T09:16:10;7.05;;;5.35;;
15198;SDS011;7700;48.654;9.070;2023-02-22T09:18:36;8.95;;;5.72;;
15198;SDS011;7700;48.654;9.070;2023-02-22T09:21:03;5.82;;;5.07;;
15198;SDS011;7700;48.654;9.070;2023-02-22T09:23:29;7.18;;;5.07;;
15198;SDS011;7700;48.654;9.070;2023-02-22T09:25:55;7.65;;;5.32;;
15198;SDS011;7700;48.654;9.070;2023-02-22T09:28:23;6.78;;;4.55;;
15198;SDS011;7700;48.654;9.070;2023-02-22T09:30:49;7.03;;;5.30;;
15198;SDS011;7700;48.654;9.070;2023-02-22T09:33:15;12.23;;;8.73;;
15198;SDS011;7700;48.654;9.070;2023-02-22T09:35:42;9.77;;;5.60;;
15198;SDS011;7700;48.654;9.070;2023-02-22T09:38:10;6.32;;;4.70;;
15198;SDS011;7700;48.654;9.070;2023-02-22T09:40:38;5.68;;;4.90;;
15198;SDS011;7700;48.654;9.070;2023-02-22T09:43:14;8.05;;;4.97;;
15198;SDS011;7700;48.654;9.070;2023-02-22T09:45:50;7.90;;;4.65;;
15198;SDS011;7700;48.654;9.070;2023-02-22T09:48:19;5.43;;;4.47;;
15198;SDS011;7700;48.654;9.070;2023-02-22T09:50:46;7.20;;;4.50;;
15198;SDS011;7700;48.654;9.070;2023-02-22T09:56:13;4.15;;;3.55;;
15198;SDS011;7700;48.654;9.070;2023-02-22T09:58:42;5.07;;;3.90;;
15198;SDS011;7700;48.654;9.070;2023-02-22T10:03:35;4.68;;;3.70;;
15198;SDS011;7700;48.654;9.070;2023-02-22T10:06:09;6.05;;;3.95;;
15198;SDS011;7700;48.654;9.070;2023-02-22T10:08:36;6.45;;;3.63;;
15198;SDS011;7700;48.654;9.070;2023-02-22T10:19:01;6.68;;;3.88;;
15198;SDS011;7700;48.654;9.070;2023-02-22T10:21:46;5.50;;;4.05;;
15198;SDS011;7700;48.654;9.070;2023-02-22T10:24:24;6.90;;;3.85;;
15198;SDS011;7700;48.654;9.070;2023-02-22T10:26:51;4.30;;;3.53;;
15198;SDS011;7700;48.654;9.070;2023-02-22T10:29:21;4.22;;;3.70;;
15198;SDS011;7700;48.654;9.070;2023-02-22T10:31:56;8.13;;;4.07;;
15198;SDS011;7700;48.654;9.070;2023-02-22T10:34:24;6.85;;;3.88;;
15198;SDS011;7700;48.654;9.070;2023-02-22T10:36:54;6.70;;;3.83;;
15198;SDS011;7700;48.654;9.070;2023-02-22T10:39:32;5.10;;;3.58;;
15198;SDS011;7700;48.654;9.070;2023-02-22T10:42:07;6.70;;;4.47;;
15198;SDS011;7700;48.654;9.070;2023-02-22T10:44:34;4.75;;;3.78;;
15198;SDS011;7700;48.654;9.070;2023-02-22T10:47:01;5.13;;;3.88;;
15198;SDS011;7700;48.654;9.070;2023-02-22T10:49:30;5.80;;;3.72;;
15198;SDS011;7700;48.654;9.070;2023-02-22T10:51:59;4.07;;;3.63;;
15198;SDS011;7700;48.654;9.070;2023-02-22T10:54:35;4.93;;;3.88;;
15198;SDS011;7700;48.654;9.070;2023-02-22T10:57:04;6.25;;;3.75;;
15198;SDS011;7700;48.654;9.070;2023-02-22T11:01:56;8.82;;;3.53;;
15198;SDS011;7700;48.654;9.070;2023-02-22T11:04:23;4.75;;;3.45;;
15198;SDS011;7700;48.654;9.070;2023-02-22T11:09:24;4.88;;;3.28;;
15198;SDS011;7700;48.654;9.070;2023-02-22T11:12:09;4.63;;;3.75;;
15198;SDS011;7700;48.654;9.070;2023-02-22T11:14:35;5.88;;;3.65;;
15198;SDS011;7700;48.654;9.070;2023-02-22T11:17:05;5.57;;;3.70;;
15198;SDS011;7700;48.654;9.070;2023-02-22T11:19:32;5.57;;;3.75;;
15198;SDS011;7700;48.654;9.070;2023-02-22T11:24:33;4.57;;;3.53;;
15198;SDS011;7700;48.654;9.070;2023-02-22T11:27:00;7.05;;;4.07;;
15198;SDS011;7700;48.654;9.070;2023-02-22T11:29:31;9.35;;;8.02;;
15198;SDS011;7700;48.654;9.070;2023-02-22T11:32:00;6.25;;;4.22;;
15198;SDS011;7700;48.654;9.070;2023-02-22T11:34:28;5.10;;;3.55;;
15198;SDS011;7700;48.654;9.070;2023-02-22T11:36:55;8.38;;;4.45;;
15198;SDS011;7700;48.654;9.070;2023-02-22T11:39:30;5.70;;;3.55;;
15198;SDS011;7700;48.654;9.070;2023-02-22T11:42:02;3.90;;;3.38;;
15198;SDS011;7700;48.654;9.070;2023-02-22T11:44:38;7.05;;;3.65;;
15198;SDS011;7700;48.654;9.070;2023-02-22T11:47:08;6.95;;;4.65;;
15198;SDS011;7700;48.654;9.070;2023-02-22T11:49:37;7.72;;;4.63;;
15198;SDS011;7700;48.654;9.070;2023-02-22T11:52:15;8.18;;;5.32;;
15198;SDS011;7700;48.654;9.070;2023-02-22T11:57:36;7.38;;;5.30;;
15198;SDS011;7700;48.654;9.070;2023-02-22T12:08:19;9.80;;;6.28;;
15198;SDS011;7700;48.654;9.070;2023-02-22T12:21:36;6.68;;;5.15;;
15198;SDS011;7700;48.654;9.070;2023-02-22T12:24:05;7.00;;;5.85;;
15198;SDS011;7700;48.654;9.070;2023-02-22T12:26:39;10.18;;;6.43;;
15198;SDS011;7700;48.654;9.070;2023-02-22T12:31:41;7.78;;;6.10;;
15198;SDS011;7700;48.654;9.070;2023-02-22T12:34:25;8.07;;;6.00;;
15198;SDS011;7700;48.654;9.070;2023-02-22T12:45:07;9.55;;;5.97;;
15198;SDS011;7700;48.654;9.070;2023-02-22T12:47:41;7.60;;;5.80;;
15198;SDS011;7700;48.654;9.070;2023-02-22T12:50:14;10.55;;;6.88;;
15198;SDS011;7700;48.654;9.070;2023-02-22T12:52:45;9.15;;;6.90;;
15198;SDS011;7700;48.654;9.070;2023-02-22T12:55:25;12.52;;;6.32;;
15198;SDS011;7700;48.654;9.070;2023-02-22T13:00:42;6.05;;;5.45;;
15198;SDS011;7700;48.654;9.070;2023-02-22T13:05:39;8.52;;;7.30;;
15198;SDS011;7700;48.654;9.070;2023-02-22T13:11:00;8.40;;;6.88;;
15198;SDS011;7700;48.654;9.070;2023-02-22T13:13:35;7.65;;;6.50;;
15198;SDS011;7700;48.654;9.070;2023-02-22T13:16:20;7.85;;;6.97;;
15198;SDS011;7700;48.654;9.070;2023-02-22T13:19:13;9.10;;;6.93;;
15198;SDS011;7700;48.654;9.070;2023-02-22T13:21:45;9.07;;;6.60;;
15198;SDS011;7700;48.654;9.070;2023-02-22T13:24:18;7.15;;;6.38;;
15198;SDS011;7700;48.654;9.070;2023-02-22T13:26:52;7.28;;;5.50;;
15198;SDS011;7700;48.654;9.070;2023-02-22T13:29:23;7.07;;;6.38;;
15198;SDS011;7700;48.654;9.070;2023-02-22T13:48:09;8.75;;;7.93;;
15198;SDS011;7700;48.654;9.070;2023-02-22T13:53:04;8.82;;;7.00;;
15198;SDS011;7700;48.654;9.070;2023-02-22T13:55:33;10.02;;;7.40;;
15198;SDS011;7700;48.654;9.070;2023-02-22T13:58:02;9.63;;;7.47;;
15198;SDS011;7700;48.654;9.070;2023-02-22T14:08:51;9.63;;;8.00;;
15198;SDS011;7700;48.654;9.070;2023-02-22T14:10:53;9.43;;;8.40;;
15198;SDS011;7700;48.654;9.070;2023-02-22T14:13:21;11.80;;;9.27;;
15198;SDS011;7700;48.654;9.070;2023-02-22T14:23:34;11.13;;;8.20;;
15198;SDS011;7700;48.654;9.070;2023-02-22T14:31:13;10.95;;;8.50;;
15198;SDS011;7700;48.654;9.070;2023-02-22T14:37:10;8.80;;;7.88;;
15198;SDS011;7700;48.654;9.070;2023-02-22T14:41:40;11.63;;;8.27;;
15198;SDS011;7700;48.654;9.070;2023-02-22T14:44:07;12.02;;;7.57;;
15198;SDS011;7700;48.654;9.070;2023-02-22T14:46:37;10.75;;;8.20;;
15198;SDS011;7700;48.654;9.070;2023-02-22T14:49:04;10.35;;;7.57;;
15198;SDS011;7700;48.654;9.070;2023-02-22T14:51:40;10.15;;;7.43;;
15198;SDS011;7700;48.654;9.070;2023-02-22T14:57:11;10.07;;;7.22;;
15198;SDS011;7700;48.654;9.070;2023-02-22T14:59:46;10.23;;;7.15;;
15198;SDS011;7700;48.654;9.070;2023-02-22T15:02:17;13.02;;;8.00;;
15198;SDS011;7700;48.654;9.070;2023-02-22T15:04:49;9.88;;;7.50;;
15198;SDS011;7700;48.654;9.070;2023-02-22T15:07:33;8.05;;;6.93;;
15198;SDS011;7700;48.654;9.070;2023-02-22T15:10:10;8.77;;;6.90;;
15198;SDS011;7700;48.654;9.070;2023-02-22T15:12:41;9.60;;;7.15;;
15198;SDS011;7700;48.654;9.070;2023-02-22T15:15:12;8.95;;;6.78;;
15198;SDS011;7700;48.654;9.070;2023-02-22T15:17:38;9.90;;;7.50;;
15198;SDS011;7700;48.654;9.070;2023-02-22T15:20:05;9.10;;;8.10;;
15198;SDS011;7700;48.654;9.070;2023-02-22T15:22:34;8.75;;;6.82;;
15198;SDS011;7700;48.654;9.070;2023-02-22T15:25:05;11.32;;;7.43;;
15198;SDS011;7700;48.654;9.070;2023-02-22T15:27:31;8.52;;;7.57;;
15198;SDS011;7700;48.654;9.070;2023-02-22T15:30:02;8.30;;;6.80;;
15198;SDS011;7700;48.654;9.070;2023-02-22T15:34:54;9.32;;;7.45;;
15198;SDS011;7700;48.654;9.070;2023-02-22T15:37:30;10.05;;;7.35;;
15198;SDS011;7700;48.654;9.070;2023-02-22T15:40:12;9.75;;;7.40;;
15198;SDS011;7700;48.654;9.070;2023-02-22T15:43:14;8.35;;;7.47;;
15198;SDS011;7700;48.654;9.070;2023-02-22T15:45:32;9.40;;;7.53;;
15198;SDS011;7700;48.654;9.070;2023-02-22T15:47:59;10.15;;;7.90;;
15198;SDS011;7700;48.654;9.070;2023-02-22T15:55:17;10.45;;;7.70;;
15198;SDS011;7700;48.654;9.070;2023-02-22T15:57:44;8.80;;;7.60;;
15198;SDS011;7700;48.654;9.070;2023-02-22T16:00:20;9.90;;;7.75;;
15198;SDS011;7700;48.654;9.070;2023-02-22T16:02:47;10.98;;;8.30;;
15198;SDS011;7700;48.654;9.070;2023-02-22T16:05:15;11.63;;;7.97;;
15198;SDS011;7700;48.654;9.070;2023-02-22T16:07:49;9.27;;;7.90;;
15198;SDS011;7700;48.654;9.070;2023-02-22T16:10:29;8.45;;;7.50;;
15198;SDS011;7700;48.654;9.070;2023-02-22T16:13:07;12.65;;;7.93;;
15198;SDS011;7700;48.654;9.070;2023-02-22T16:15:33;9.07;;;7.68;;
15198;SDS011;7700;48.654;9.070;2023-02-22T16:18:15;13.85;;;7.60;;
15198;SDS011;7700;48.654;9.070;2023-02-22T16:20:42;11.40;;;7.68;;
15198;SDS011;7700;48.654;9.070;2023-02-22T16:23:24;12.27;;;7.93;;
15198;SDS011;7700;48.654;9.070;2023-02-22T16:26:00;12.77;;;8.48;;
15198;SDS011;7700;48.654;9.070;2023-02-22T16:28:29;8.70;;;7.72;;
15198;SDS011;7700;48.654;9.070;2023-02-22T16:30:58;10.05;;;8.32;;
15198;SDS011;7700;48.654;9.070;2023-02-22T16:33:24;11.07;;;8.75;;
15198;SDS011;7700;48.654;9.070;2023-02-22T16:35:53;8.25;;;7.07;;
15198;SDS011;7700;48.654;9.070;2023-02-22T16:38:21;10.27;;;7.45;;
15198;SDS011;7700;48.654;9.070;2023-02-22T16:40:47;9.48;;;7.90;;
15198;SDS011;7700;48.654;9.070;2023-02-22T16:43:17;9.45;;;8.07;;
15198;SDS011;7700;48.654;9.070;2023-02-22T16:45:43;13.93;;;7.90;;
15198;SDS011;7700;48.654;9.070;2023-02-22T16:50:42;8.85;;;7.95;;
15198;SDS011;7700;48.654;9.070;2023-02-22T16:53:08;11.32;;;7.90;;
15198;SDS011;7700;48.654;9.070;2023-02-22T16:55:34;9.77;;;7.85;;
15198;SDS011;7700;48.654;9.070;2023-02-22T16:58:01;11.48;;;8.32;;
15198;SDS011;7700;48.654;9.070;2023-02-22T17:00:27;10.15;;;8.70;;
15198;SDS011;7700;48.654;9.070;2023-02-22T17:03:00;11.65;;;8.25;;
15198;SDS011;7700;48.654;9.070;2023-02-22T17:05:28;11.63;;;8.70;;
15198;SDS011;7700;48.654;9.070;2023-02-22T17:07:54;11.88;;;8.40;;
15198;SDS011;7700;48.654;9.070;2023-02-22T17:10:20;9.68;;;8.27;;
15198;SDS011;7700;48.654;9.070;2023-02-22T17:12:49;14.52;;;9.10;;
15198;SDS011;7700;48.654;9.070;2023-02-22T17:15:50;13.52;;;11.30;;
15198;SDS011;7700;48.654;9.070;2023-02-22T17:18:13;25.10;;;20.90;;
15198;SDS011;7700;48.654;9.070;2023-02-22T17:20:40;19.60;;;16.30;;
15198;SDS011;7700;48.654;9.070;2023-02-22T17:23:06;11.15;;;9.68;;
15198;SDS011;7700;48.654;9.070;2023-02-22T17:25:37;24.27;;;17.92;;
15198;SDS011;7700;48.654;9.070;2023-02-22T17:28:04;20.33;;;13.52;;
15198;SDS011;7700;48.654;9.070;2023-02-22T17:30:30;12.07;;;8.48;;
15198;SDS011;7700;48.654;9.070;2023-02-22T17:32:58;12.80;;;9.18;;